sensor_id;sensor_type;location;lat;lon;timestamp;P1;durP1;ratioP1;P2;durP2;ratioP2
6787;SDS011;3431;47.966;10.268;2022-11-15T00:00:03;1.63;;;1.53;;
6787;SDS011;3431;47.966;10.268;2022-11-15T00:00:44;1.50;;;1.40;;
6787;SDS011;3431;47.966;10.268;2022-11-15T00:01:24;1.67;;;1.58;;
6787;SDS011;3431;47.966;10.268;2022-11-15T00:02:06;1.53;;;1.43;;
6787;SDS011;3431;47.966;10.268;2022-11-15T00:02:45;1.50;;;1.40;;
6787;SDS011;3431;47.966;10.268;2022-11-15T00:03:27;1.63;;;1.52;;
6787;SDS011;3431;47.966;10.268;2022-11-15T00:04:08;1.60;;;1.50;;
6787;SDS011;3431;47.966;10.268;2022-11-15T00:04:49;2.05;;;1.70;;
6787;SDS011;3431;47.966;10.268;2022-11-15T00:05:34;1.50;;;1.40;;
6787;SDS011;3431;47.966;10.268;2022-11-15T00:06:14;1.40;;;1.30;;
6787;SDS011;3431;47.966;10.268;2022-11-15T00:06:54;1.70;;;1.60;;
6787;SDS011;3431;47.966;10.268;2022-11-15T00:07:35;1.85;;;1.75;;
6787;SDS011;3431;47.966;10.268;2022-11-15T00:08:15;2.28;;;1.83;;
6787;SDS011;3431;47.966;10.268;2022-11-15T00:08:57;1.83;;;1.73;;
6787;SDS011;3431;47.966;10.268;2022-11-15T00:09:38;1.95;;;1.85;;
6787;SDS011;3431;47.966;10.268;2022-11-15T00:10:18;1.67;;;1.58;;
6787;SDS011;3431;47.966;10.268;2022-11-15T00:10:59;1.65;;;1.55;;
6787;SDS011;3431;47.966;10.268;2022-11-15T00:11:41;2.20;;;1.88;;
6787;SDS011;3431;47.966;10.268;2022-11-15T00:12:21;1.80;;;1.70;;
6787;SDS011;3431;47.966;10.268;2022-11-15T00:13:03;2.15;;;1.70;;
6787;SDS011;3431;47.966;10.268;2022-11-15T00:13:45;1.90;;;1.80;;
6787;SDS011;3431;47.966;10.268;2022-11-15T00:14:25;1.75;;;1.65;;
6787;SDS011;3431;47.966;10.268;2022-11-15T00:15:06;1.92;;;1.80;;
6787;SDS011;3431;47.966;10.268;2022-11-15T00:15:47;2.00;;;1.83;;
6787;SDS011;3431;47.966;10.268;2022-11-15T00:16:27;1.75;;;1.65;;
6787;SDS011;3431;47.966;10.268;2022-11-15T00:17:08;1.95;;;1.77;;
6787;SDS011;3431;47.966;10.268;2022-11-15T00:17:48;1.88;;;1.77;;
6787;SDS011;3431;47.966;10.268;2022-11-15T00:18:32;1.70;;;1.60;;
6787;SDS011;3431;47.966;10.268;2022-11-15T00:19:12;1.60;;;1.50;;
6787;SDS011;3431;47.966;10.268;2022-11-15T00:19:53;1.80;;;1.70;;
6787;SDS011;3431;47.966;10.268;2022-11-15T00:20:33;1.60;;;1.50;;
6787;SDS011;3431;47.966;10.268;2022-11-15T00:21:13;1.90;;;1.80;;
6787;SDS011;3431;47.966;10.268;2022-11-15T00:21:55;2.33;;;1.63;;
6787;SDS011;3431;47.966;10.268;2022-11-15T00:22:35;1.65;;;1.55;;
6787;SDS011;3431;47.966;10.268;2022-11-15T00:23:15;1.80;;;1.70;;
6787;SDS011;3431;47.966;10.268;2022-11-15T00:23:56;2.10;;;1.90;;
6787;SDS011;3431;47.966;10.268;2022-11-15T00:24:37;1.80;;;1.70;;
6787;SDS011;3431;47.966;10.268;2022-11-15T00:25:17;1.80;;;1.70;;
6787;SDS011;3431;47.966;10.268;2022-11-15T00:25:58;1.67;;;1.58;;
6787;SDS011;3431;47.966;10.268;2022-11-15T00:26:38;1.77;;;1.67;;
6787;SDS011;3431;47.966;10.268;2022-11-15T00:27:19;1.70;;;1.60;;
6787;SDS011;3431;47.966;10.268;2022-11-15T00:27:59;2.08;;;1.88;;
6787;SDS011;3431;47.966;10.268;2022-11-15T00:28:41;1.80;;;1.70;;
6787;SDS011;3431;47.966;10.268;2022-11-15T00:29:21;2.00;;;1.83;;
6787;SDS011;3431;47.966;10.268;2022-11-15T00:30:02;2.03;;;1.80;;
6787;SDS011;3431;47.966;10.268;2022-11-15T00:30:43;1.85;;;1.70;;
6787;SDS011;3431;47.966;10.268;2022-11-15T00:31:24;1.75;;;1.65;;
6787;SDS011;3431;47.966;10.268;2022-11-15T00:32:04;1.75;;;1.65;;
6787;SDS011;3431;47.966;10.268;2022-11-15T00:32:45;1.75;;;1.65;;
6787;SDS011;3431;47.966;10.268;2022-11-15T00:33:25;1.85;;;1.75;;
6787;SDS011;3431;47.966;10.268;2022-11-15T00:34:06;2.13;;;1.90;;
6787;SDS011;3431;47.966;10.268;2022-11-15T00:34:48;1.63;;;1.52;;
6787;SDS011;3431;47.966;10.268;2022-11-15T00:35:27;1.70;;;1.60;;
6787;SDS011;3431;47.966;10.268;2022-11-15T00:36:08;2.08;;;1.88;;
6787;SDS011;3431;47.966;10.268;2022-11-15T00:36:49;1.92;;;1.83;;
6787;SDS011;3431;47.966;10.268;2022-11-15T00:37:29;2.00;;;1.60;;
6787;SDS011;3431;47.966;10.268;2022-11-15T00:38:10;1.60;;;1.48;;
6787;SDS011;3431;47.966;10.268;2022-11-15T00:38:50;1.90;;;1.80;;
6787;SDS011;3431;47.966;10.268;2022-11-15T00:39:30;1.77;;;1.67;;
6787;SDS011;3431;47.966;10.268;2022-11-15T00:40:11;1.75;;;1.65;;
6787;SDS011;3431;47.966;10.268;2022-11-15T00:40:52;2.10;;;1.90;;
6787;SDS011;3431;47.966;10.268;2022-11-15T00:41:32;1.75;;;1.65;;
6787;SDS011;3431;47.966;10.268;2022-11-15T00:42:13;2.65;;;1.90;;
6787;SDS011;3431;47.966;10.268;2022-11-15T00:42:53;1.70;;;1.60;;
6787;SDS011;3431;47.966;10.268;2022-11-15T00:43:34;1.60;;;1.50;;
6787;SDS011;3431;47.966;10.268;2022-11-15T00:44:14;1.63;;;1.52;;
6787;SDS011;3431;47.966;10.268;2022-11-15T00:44:55;1.95;;;1.77;;
6787;SDS011;3431;47.966;10.268;2022-11-15T00:45:35;1.58;;;1.48;;
6787;SDS011;3431;47.966;10.268;2022-11-15T00:46:15;1.50;;;1.40;;
6787;SDS011;3431;47.966;10.268;2022-11-15T00:46:56;1.67;;;1.58;;
6787;SDS011;3431;47.966;10.268;2022-11-15T00:47:36;1.90;;;1.80;;
6787;SDS011;3431;47.966;10.268;2022-11-15T00:48:16;2.38;;;1.70;;
6787;SDS011;3431;47.966;10.268;2022-11-15T00:48:57;1.80;;;1.70;;
6787;SDS011;3431;47.966;10.268;2022-11-15T00:49:38;1.85;;;1.75;;
6787;SDS011;3431;47.966;10.268;2022-11-15T00:50:20;1.90;;;1.80;;
6787;SDS011;3431;47.966;10.268;2022-11-15T00:51:00;1.92;;;1.80;;
6787;SDS011;3431;47.966;10.268;2022-11-15T00:51:41;1.90;;;1.80;;
6787;SDS011;3431;47.966;10.268;2022-11-15T00:52:21;2.00;;;1.90;;
6787;SDS011;3431;47.966;10.268;2022-11-15T00:53:01;2.50;;;1.70;;
6787;SDS011;3431;47.966;10.268;2022-11-15T00:53:42;1.50;;;1.40;;
6787;SDS011;3431;47.966;10.268;2022-11-15T00:54:22;1.60;;;1.50;;
6787;SDS011;3431;47.966;10.268;2022-11-15T00:55:02;1.60;;;1.50;;
6787;SDS011;3431;47.966;10.268;2022-11-15T00:55:44;1.60;;;1.50;;
6787;SDS011;3431;47.966;10.268;2022-11-15T00:56:25;1.85;;;1.52;;
6787;SDS011;3431;47.966;10.268;2022-11-15T00:57:05;1.73;;;1.63;;
6787;SDS011;3431;47.966;10.268;2022-11-15T00:57:46;1.52;;;1.45;;
6787;SDS011;3431;47.966;10.268;2022-11-15T00:58:26;1.33;;;1.23;;
6787;SDS011;3431;47.966;10.268;2022-11-15T00:59:08;1.83;;;1.73;;
6787;SDS011;3431;47.966;10.268;2022-11-15T00:59:48;1.40;;;1.33;;
6787;SDS011;3431;47.966;10.268;2022-11-15T01:00:29;1.38;;;1.33;;
6787;SDS011;3431;47.966;10.268;2022-11-15T01:01:09;1.58;;;1.48;;
6787;SDS011;3431;47.966;10.268;2022-11-15T01:01:51;1.55;;;1.45;;
6787;SDS011;3431;47.966;10.268;2022-11-15T01:02:31;1.88;;;1.55;;
6787;SDS011;3431;47.966;10.268;2022-11-15T01:03:11;1.40;;;1.30;;
6787;SDS011;3431;47.966;10.268;2022-11-15T01:03:52;1.48;;;1.40;;
6787;SDS011;3431;47.966;10.268;2022-11-15T01:04:32;1.50;;;1.40;;
6787;SDS011;3431;47.966;10.268;2022-11-15T01:05:15;1.42;;;1.33;;
6787;SDS011;3431;47.966;10.268;2022-11-15T01:05:58;1.40;;;1.30;;
6787;SDS011;3431;47.966;10.268;2022-11-15T01:06:39;2.03;;;1.35;;
6787;SDS011;3431;47.966;10.268;2022-11-15T01:07:19;1.40;;;1.30;;
6787;SDS011;3431;47.966;10.268;2022-11-15T01:08:00;1.20;;;1.10;;
6787;SDS011;3431;47.966;10.268;2022-11-15T01:08:40;1.40;;;1.30;;
6787;SDS011;3431;47.966;10.268;2022-11-15T01:09:20;1.25;;;1.25;;
6787;SDS011;3431;47.966;10.268;2022-11-15T01:10:02;1.42;;;1.33;;
6787;SDS011;3431;47.966;10.268;2022-11-15T01:10:42;1.80;;;1.52;;
6787;SDS011;3431;47.966;10.268;2022-11-15T01:11:22;1.20;;;1.20;;
6787;SDS011;3431;47.966;10.268;2022-11-15T01:12:04;1.75;;;1.30;;
6787;SDS011;3431;47.966;10.268;2022-11-15T01:12:44;1.23;;;1.20;;
6787;SDS011;3431;47.966;10.268;2022-11-15T01:13:24;1.30;;;1.30;;
6787;SDS011;3431;47.966;10.268;2022-11-15T01:14:05;1.40;;;1.30;;
6787;SDS011;3431;47.966;10.268;2022-11-15T01:14:45;1.40;;;1.30;;
6787;SDS011;3431;47.966;10.268;2022-11-15T01:15:24;1.40;;;1.30;;
6787;SDS011;3431;47.966;10.268;2022-11-15T01:16:06;1.55;;;1.45;;
6787;SDS011;3431;47.966;10.268;2022-11-15T01:16:47;1.67;;;1.30;;
6787;SDS011;3431;47.966;10.268;2022-11-15T01:17:27;1.20;;;1.20;;
6787;SDS011;3431;47.966;10.268;2022-11-15T01:18:08;1.33;;;1.33;;
6787;SDS011;3431;47.966;10.268;2022-11-15T01:18:48;1.88;;;1.40;;
6787;SDS011;3431;47.966;10.268;2022-11-15T01:19:29;1.30;;;1.30;;
6787;SDS011;3431;47.966;10.268;2022-11-15T01:20:09;1.30;;;1.20;;
6787;SDS011;3431;47.966;10.268;2022-11-15T01:20:51;2.03;;;1.38;;
6787;SDS011;3431;47.966;10.268;2022-11-15T01:21:33;1.30;;;1.30;;
6787;SDS011;3431;47.966;10.268;2022-11-15T01:22:12;1.60;;;1.10;;
6787;SDS011;3431;47.966;10.268;2022-11-15T01:22:54;2.20;;;1.10;;
6787;SDS011;3431;47.966;10.268;2022-11-15T01:23:34;1.50;;;1.40;;
6787;SDS011;3431;47.966;10.268;2022-11-15T01:24:15;1.40;;;1.30;;
6787;SDS011;3431;47.966;10.268;2022-11-15T01:24:55;1.23;;;1.20;;
6787;SDS011;3431;47.966;10.268;2022-11-15T01:25:36;1.38;;;1.30;;
6787;SDS011;3431;47.966;10.268;2022-11-15T01:26:17;1.13;;;1.13;;
6787;SDS011;3431;47.966;10.268;2022-11-15T01:26:56;1.48;;;1.38;;
6787;SDS011;3431;47.966;10.268;2022-11-15T01:27:37;1.27;;;1.17;;
6787;SDS011;3431;47.966;10.268;2022-11-15T01:28:17;1.67;;;1.20;;
6787;SDS011;3431;47.966;10.268;2022-11-15T01:28:57;1.40;;;1.30;;
6787;SDS011;3431;47.966;10.268;2022-11-15T01:29:38;1.60;;;1.50;;
6787;SDS011;3431;47.966;10.268;2022-11-15T01:30:18;1.20;;;1.20;;
6787;SDS011;3431;47.966;10.268;2022-11-15T01:30:58;1.30;;;1.30;;
6787;SDS011;3431;47.966;10.268;2022-11-15T01:31:40;1.42;;;1.17;;
6787;SDS011;3431;47.966;10.268;2022-11-15T01:32:19;1.55;;;1.40;;
6787;SDS011;3431;47.966;10.268;2022-11-15T01:33:01;1.40;;;1.40;;
6787;SDS011;3431;47.966;10.268;2022-11-15T01:33:41;1.45;;;1.35;;
6787;SDS011;3431;47.966;10.268;2022-11-15T01:34:22;1.50;;;1.40;;
6787;SDS011;3431;47.966;10.268;2022-11-15T01:35:02;1.10;;;1.10;;
6787;SDS011;3431;47.966;10.268;2022-11-15T01:35:42;1.50;;;1.40;;
6787;SDS011;3431;47.966;10.268;2022-11-15T01:36:24;1.50;;;1.40;;
6787;SDS011;3431;47.966;10.268;2022-11-15T01:37:04;1.20;;;1.20;;
6787;SDS011;3431;47.966;10.268;2022-11-15T01:37:46;1.50;;;1.40;;
6787;SDS011;3431;47.966;10.268;2022-11-15T01:38:26;1.40;;;1.30;;
6787;SDS011;3431;47.966;10.268;2022-11-15T01:39:06;1.35;;;1.15;;
6787;SDS011;3431;47.966;10.268;2022-11-15T01:39:48;1.20;;;1.20;;
6787;SDS011;3431;47.966;10.268;2022-11-15T01:40:28;1.10;;;1.10;;
6787;SDS011;3431;47.966;10.268;2022-11-15T01:41:13;1.20;;;1.20;;
6787;SDS011;3431;47.966;10.268;2022-11-15T01:41:56;1.50;;;1.40;;
6787;SDS011;3431;47.966;10.268;2022-11-15T01:42:37;1.40;;;1.30;;
6787;SDS011;3431;47.966;10.268;2022-11-15T01:43:18;2.00;;;1.60;;
6787;SDS011;3431;47.966;10.268;2022-11-15T01:45:15;1.30;;;1.20;;
6787;SDS011;3431;47.966;10.268;2022-11-15T01:45:56;1.20;;;1.20;;
6787;SDS011;3431;47.966;10.268;2022-11-15T01:46:41;1.48;;;1.30;;
6787;SDS011;3431;47.966;10.268;2022-11-15T01:47:25;1.40;;;1.30;;
6787;SDS011;3431;47.966;10.268;2022-11-15T01:48:09;1.42;;;1.33;;
6787;SDS011;3431;47.966;10.268;2022-11-15T01:48:51;1.38;;;1.33;;
6787;SDS011;3431;47.966;10.268;2022-11-15T01:49:33;1.42;;;1.30;;
6787;SDS011;3431;47.966;10.268;2022-11-15T01:50:19;1.50;;;1.40;;
6787;SDS011;3431;47.966;10.268;2022-11-15T01:51:02;1.80;;;1.48;;
6787;SDS011;3431;47.966;10.268;2022-11-15T01:51:49;1.40;;;1.30;;
6787;SDS011;3431;47.966;10.268;2022-11-15T01:52:30;1.23;;;1.23;;
6787;SDS011;3431;47.966;10.268;2022-11-15T01:53:14;1.50;;;1.40;;
6787;SDS011;3431;47.966;10.268;2022-11-15T01:53:55;1.65;;;1.33;;
6787;SDS011;3431;47.966;10.268;2022-11-15T01:54:38;1.30;;;1.20;;
6787;SDS011;3431;47.966;10.268;2022-11-15T01:55:20;1.45;;;1.40;;
6787;SDS011;3431;47.966;10.268;2022-11-15T01:56:02;1.40;;;1.30;;
6787;SDS011;3431;47.966;10.268;2022-11-15T01:56:45;1.30;;;1.20;;
6787;SDS011;3431;47.966;10.268;2022-11-15T01:57:27;1.20;;;1.20;;
6787;SDS011;3431;47.966;10.268;2022-11-15T01:58:08;1.15;;;1.15;;
6787;SDS011;3431;47.966;10.268;2022-11-15T01:58:48;1.40;;;1.30;;
6787;SDS011;3431;47.966;10.268;2022-11-15T01:59:30;1.42;;;1.33;;
6787;SDS011;3431;47.966;10.268;2022-11-15T02:00:11;1.60;;;1.50;;
6787;SDS011;3431;47.966;10.268;2022-11-15T02:00:53;1.30;;;1.20;;
6787;SDS011;3431;47.966;10.268;2022-11-15T02:01:33;1.33;;;1.23;;
6787;SDS011;3431;47.966;10.268;2022-11-15T02:02:13;1.15;;;1.00;;
6787;SDS011;3431;47.966;10.268;2022-11-15T02:02:55;1.30;;;1.30;;
6787;SDS011;3431;47.966;10.268;2022-11-15T02:03:36;1.40;;;1.30;;
6787;SDS011;3431;47.966;10.268;2022-11-15T02:04:21;1.45;;;1.35;;
6787;SDS011;3431;47.966;10.268;2022-11-15T02:05:06;1.50;;;1.40;;
6787;SDS011;3431;47.966;10.268;2022-11-15T02:05:47;1.27;;;1.23;;
6787;SDS011;3431;47.966;10.268;2022-11-15T02:06:29;1.30;;;1.30;;
6787;SDS011;3431;47.966;10.268;2022-11-15T02:07:12;1.30;;;1.20;;
6787;SDS011;3431;47.966;10.268;2022-11-15T02:07:56;1.58;;;1.48;;
6787;SDS011;3431;47.966;10.268;2022-11-15T02:08:37;1.13;;;1.13;;
6787;SDS011;3431;47.966;10.268;2022-11-15T02:09:18;1.45;;;1.35;;
6787;SDS011;3431;47.966;10.268;2022-11-15T02:09:58;1.42;;;1.35;;
6787;SDS011;3431;47.966;10.268;2022-11-15T02:10:43;1.20;;;1.20;;
6787;SDS011;3431;47.966;10.268;2022-11-15T02:11:24;1.38;;;1.20;;
6787;SDS011;3431;47.966;10.268;2022-11-15T02:12:05;1.50;;;1.40;;
6787;SDS011;3431;47.966;10.268;2022-11-15T02:12:47;1.42;;;1.35;;
6787;SDS011;3431;47.966;10.268;2022-11-15T02:13:29;1.50;;;1.20;;
6787;SDS011;3431;47.966;10.268;2022-11-15T02:14:09;1.40;;;1.30;;
6787;SDS011;3431;47.966;10.268;2022-11-15T02:14:53;1.50;;;1.40;;
6787;SDS011;3431;47.966;10.268;2022-11-15T02:15:35;1.55;;;1.45;;
6787;SDS011;3431;47.966;10.268;2022-11-15T02:16:26;1.52;;;1.42;;
6787;SDS011;3431;47.966;10.268;2022-11-15T02:17:25;1.50;;;1.40;;
6787;SDS011;3431;47.966;10.268;2022-11-15T02:18:15;1.73;;;1.63;;
6787;SDS011;3431;47.966;10.268;2022-11-15T02:19:05;1.60;;;1.50;;
6787;SDS011;3431;47.966;10.268;2022-11-15T02:21:11;1.60;;;1.50;;
6787;SDS011;3431;47.966;10.268;2022-11-15T02:22:04;1.40;;;1.30;;
6787;SDS011;3431;47.966;10.268;2022-11-15T02:23:03;1.55;;;1.45;;
6787;SDS011;3431;47.966;10.268;2022-11-15T02:25:14;1.50;;;1.40;;
6787;SDS011;3431;47.966;10.268;2022-11-15T02:26:19;1.20;;;1.20;;
6787;SDS011;3431;47.966;10.268;2022-11-15T02:27:24;1.50;;;1.40;;
6787;SDS011;3431;47.966;10.268;2022-11-15T02:28:44;1.35;;;1.25;;
6787;SDS011;3431;47.966;10.268;2022-11-15T02:29:34;1.40;;;1.30;;
6787;SDS011;3431;47.966;10.268;2022-11-15T02:30:31;1.60;;;1.50;;
6787;SDS011;3431;47.966;10.268;2022-11-15T02:31:19;1.38;;;1.27;;
6787;SDS011;3431;47.966;10.268;2022-11-15T02:32:06;1.30;;;1.20;;
6787;SDS011;3431;47.966;10.268;2022-11-15T02:32:54;2.22;;;1.42;;
6787;SDS011;3431;47.966;10.268;2022-11-15T02:33:41;1.48;;;1.40;;
6787;SDS011;3431;47.966;10.268;2022-11-15T02:34:28;1.27;;;1.27;;
6787;SDS011;3431;47.966;10.268;2022-11-15T02:35:25;1.20;;;1.17;;
6787;SDS011;3431;47.966;10.268;2022-11-15T02:36:15;1.50;;;1.40;;
6787;SDS011;3431;47.966;10.268;2022-11-15T02:37:07;1.50;;;1.40;;
6787;SDS011;3431;47.966;10.268;2022-11-15T02:37:55;1.30;;;1.30;;
6787;SDS011;3431;47.966;10.268;2022-11-15T02:38:40;1.33;;;1.25;;
6787;SDS011;3431;47.966;10.268;2022-11-15T02:39:27;1.50;;;1.40;;
6787;SDS011;3431;47.966;10.268;2022-11-15T02:40:17;1.63;;;1.52;;
6787;SDS011;3431;47.966;10.268;2022-11-15T02:41:08;1.50;;;1.40;;
6787;SDS011;3431;47.966;10.268;2022-11-15T02:41:54;1.50;;;1.40;;
6787;SDS011;3431;47.966;10.268;2022-11-15T02:42:42;1.30;;;1.20;;
6787;SDS011;3431;47.966;10.268;2022-11-15T02:43:45;1.40;;;1.30;;
6787;SDS011;3431;47.966;10.268;2022-11-15T02:44:37;1.40;;;1.30;;
6787;SDS011;3431;47.966;10.268;2022-11-15T02:45:25;1.42;;;1.35;;
6787;SDS011;3431;47.966;10.268;2022-11-15T02:46:12;1.27;;;1.25;;
6787;SDS011;3431;47.966;10.268;2022-11-15T02:46:58;1.55;;;1.45;;
6787;SDS011;3431;47.966;10.268;2022-11-15T02:47:54;1.40;;;1.30;;
6787;SDS011;3431;47.966;10.268;2022-11-15T02:48:38;1.40;;;1.30;;
6787;SDS011;3431;47.966;10.268;2022-11-15T02:49:19;1.35;;;1.25;;
6787;SDS011;3431;47.966;10.268;2022-11-15T02:50:01;1.27;;;1.17;;
6787;SDS011;3431;47.966;10.268;2022-11-15T02:50:45;1.45;;;1.30;;
6787;SDS011;3431;47.966;10.268;2022-11-15T02:51:27;1.48;;;1.42;;
6787;SDS011;3431;47.966;10.268;2022-11-15T02:52:07;1.52;;;1.42;;
6787;SDS011;3431;47.966;10.268;2022-11-15T02:52:47;1.25;;;1.20;;
6787;SDS011;3431;47.966;10.268;2022-11-15T02:53:29;1.08;;;1.08;;
6787;SDS011;3431;47.966;10.268;2022-11-15T02:54:10;1.40;;;1.30;;
6787;SDS011;3431;47.966;10.268;2022-11-15T02:54:54;1.50;;;1.40;;
6787;SDS011;3431;47.966;10.268;2022-11-15T02:55:36;1.20;;;1.20;;
6787;SDS011;3431;47.966;10.268;2022-11-15T02:56:18;1.33;;;1.27;;
6787;SDS011;3431;47.966;10.268;2022-11-15T02:56:59;1.17;;;1.08;;
6787;SDS011;3431;47.966;10.268;2022-11-15T02:57:45;1.42;;;1.33;;
6787;SDS011;3431;47.966;10.268;2022-11-15T02:59:43;1.60;;;1.45;;
6787;SDS011;3431;47.966;10.268;2022-11-15T03:00:40;1.95;;;1.25;;
6787;SDS011;3431;47.966;10.268;2022-11-15T03:01:33;1.50;;;1.40;;
6787;SDS011;3431;47.966;10.268;2022-11-15T03:02:24;1.20;;;1.20;;
6787;SDS011;3431;47.966;10.268;2022-11-15T03:03:27;1.48;;;1.38;;
6787;SDS011;3431;47.966;10.268;2022-11-15T03:04:21;1.90;;;1.33;;
6787;SDS011;3431;47.966;10.268;2022-11-15T03:05:09;1.15;;;1.15;;
6787;SDS011;3431;47.966;10.268;2022-11-15T03:06:00;1.13;;;1.13;;
6787;SDS011;3431;47.966;10.268;2022-11-15T03:06:49;1.40;;;1.30;;
6787;SDS011;3431;47.966;10.268;2022-11-15T03:07:36;1.20;;;1.20;;
6787;SDS011;3431;47.966;10.268;2022-11-15T03:08:26;1.95;;;1.35;;
6787;SDS011;3431;47.966;10.268;2022-11-15T03:09:12;1.40;;;1.30;;
6787;SDS011;3431;47.966;10.268;2022-11-15T03:10:02;1.23;;;1.20;;
6787;SDS011;3431;47.966;10.268;2022-11-15T03:10:47;1.40;;;1.30;;
6787;SDS011;3431;47.966;10.268;2022-11-15T03:11:37;1.30;;;1.20;;
6787;SDS011;3431;47.966;10.268;2022-11-15T03:12:23;1.17;;;1.10;;
6787;SDS011;3431;47.966;10.268;2022-11-15T03:13:19;3.33;;;1.30;;
6787;SDS011;3431;47.966;10.268;2022-11-15T03:14:07;1.25;;;1.15;;
6787;SDS011;3431;47.966;10.268;2022-11-15T03:14:54;1.33;;;1.23;;
6787;SDS011;3431;47.966;10.268;2022-11-15T03:15:41;1.52;;;1.42;;
6787;SDS011;3431;47.966;10.268;2022-11-15T03:16:30;1.20;;;1.20;;
6787;SDS011;3431;47.966;10.268;2022-11-15T03:17:18;1.30;;;1.30;;
6787;SDS011;3431;47.966;10.268;2022-11-15T03:18:06;1.30;;;1.20;;
6787;SDS011;3431;47.966;10.268;2022-11-15T03:18:53;1.25;;;1.17;;
6787;SDS011;3431;47.966;10.268;2022-11-15T03:19:40;1.52;;;1.42;;
6787;SDS011;3431;47.966;10.268;2022-11-15T03:20:25;1.50;;;1.40;;
6787;SDS011;3431;47.966;10.268;2022-11-15T03:21:07;1.50;;;1.40;;
6787;SDS011;3431;47.966;10.268;2022-11-15T03:21:50;1.20;;;1.20;;
6787;SDS011;3431;47.966;10.268;2022-11-15T03:22:33;1.50;;;1.40;;
6787;SDS011;3431;47.966;10.268;2022-11-15T03:23:15;1.30;;;1.20;;
6787;SDS011;3431;47.966;10.268;2022-11-15T03:23:57;1.60;;;1.40;;
6787;SDS011;3431;47.966;10.268;2022-11-15T03:24:39;1.20;;;1.17;;
6787;SDS011;3431;47.966;10.268;2022-11-15T03:25:24;1.42;;;1.33;;
6787;SDS011;3431;47.966;10.268;2022-11-15T03:26:09;1.33;;;1.27;;
6787;SDS011;3431;47.966;10.268;2022-11-15T03:26:53;1.17;;;1.13;;
6787;SDS011;3431;47.966;10.268;2022-11-15T03:27:37;1.38;;;1.27;;
6787;SDS011;3431;47.966;10.268;2022-11-15T03:28:22;1.75;;;1.42;;
6787;SDS011;3431;47.966;10.268;2022-11-15T03:29:09;1.38;;;1.30;;
6787;SDS011;3431;47.966;10.268;2022-11-15T03:29:54;1.45;;;1.20;;
6787;SDS011;3431;47.966;10.268;2022-11-15T03:30:39;1.38;;;1.27;;
6787;SDS011;3431;47.966;10.268;2022-11-15T03:31:21;1.30;;;1.20;;
6787;SDS011;3431;47.966;10.268;2022-11-15T03:32:30;1.27;;;1.17;;
6787;SDS011;3431;47.966;10.268;2022-11-15T03:33:15;1.42;;;1.33;;
6787;SDS011;3431;47.966;10.268;2022-11-15T03:33:56;1.30;;;1.20;;
6787;SDS011;3431;47.966;10.268;2022-11-15T03:34:39;1.20;;;1.20;;
6787;SDS011;3431;47.966;10.268;2022-11-15T03:35:23;1.10;;;1.10;;
6787;SDS011;3431;47.966;10.268;2022-11-15T03:36:04;1.17;;;1.10;;
6787;SDS011;3431;47.966;10.268;2022-11-15T03:36:46;1.10;;;1.10;;
6787;SDS011;3431;47.966;10.268;2022-11-15T03:37:29;1.35;;;1.20;;
6787;SDS011;3431;47.966;10.268;2022-11-15T03:38:15;1.25;;;1.17;;
6787;SDS011;3431;47.966;10.268;2022-11-15T03:39:02;1.45;;;1.35;;
6787;SDS011;3431;47.966;10.268;2022-11-15T03:39:47;1.17;;;1.17;;
6787;SDS011;3431;47.966;10.268;2022-11-15T03:40:29;0.95;;;0.95;;
6787;SDS011;3431;47.966;10.268;2022-11-15T03:41:22;1.13;;;1.10;;
6787;SDS011;3431;47.966;10.268;2022-11-15T03:42:08;1.60;;;1.20;;
6787;SDS011;3431;47.966;10.268;2022-11-15T03:43:00;1.52;;;1.25;;
6787;SDS011;3431;47.966;10.268;2022-11-15T03:43:44;1.13;;;1.13;;
6787;SDS011;3431;47.966;10.268;2022-11-15T03:44:34;1.00;;;1.00;;
6787;SDS011;3431;47.966;10.268;2022-11-15T03:45:22;1.38;;;1.17;;
6787;SDS011;3431;47.966;10.268;2022-11-15T03:46:07;1.50;;;1.10;;
6787;SDS011;3431;47.966;10.268;2022-11-15T03:46:56;1.30;;;1.20;;
6787;SDS011;3431;47.966;10.268;2022-11-15T03:47:42;1.10;;;1.10;;
6787;SDS011;3431;47.966;10.268;2022-11-15T03:48:30;1.10;;;1.10;;
6787;SDS011;3431;47.966;10.268;2022-11-15T03:49:15;1.10;;;1.00;;
6787;SDS011;3431;47.966;10.268;2022-11-15T03:50:02;1.17;;;1.10;;
6787;SDS011;3431;47.966;10.268;2022-11-15T03:50:46;1.20;;;1.20;;
6787;SDS011;3431;47.966;10.268;2022-11-15T03:51:29;1.20;;;1.13;;
6787;SDS011;3431;47.966;10.268;2022-11-15T03:52:09;1.58;;;1.23;;
6787;SDS011;3431;47.966;10.268;2022-11-15T03:52:50;1.17;;;1.17;;
6787;SDS011;3431;47.966;10.268;2022-11-15T03:53:34;1.20;;;1.20;;
6787;SDS011;3431;47.966;10.268;2022-11-15T03:54:14;1.38;;;1.20;;
6787;SDS011;3431;47.966;10.268;2022-11-15T03:54:55;1.20;;;1.20;;
6787;SDS011;3431;47.966;10.268;2022-11-15T03:55:36;1.38;;;1.27;;
6787;SDS011;3431;47.966;10.268;2022-11-15T03:56:17;1.10;;;1.00;;
6787;SDS011;3431;47.966;10.268;2022-11-15T03:56:57;1.20;;;1.10;;
6787;SDS011;3431;47.966;10.268;2022-11-15T03:57:37;1.10;;;1.10;;
6787;SDS011;3431;47.966;10.268;2022-11-15T03:58:18;1.35;;;1.20;;
6787;SDS011;3431;47.966;10.268;2022-11-15T03:58:58;1.35;;;1.25;;
6787;SDS011;3431;47.966;10.268;2022-11-15T03:59:38;1.10;;;1.10;;
6787;SDS011;3431;47.966;10.268;2022-11-15T04:00:19;1.42;;;1.33;;
6787;SDS011;3431;47.966;10.268;2022-11-15T04:00:59;1.42;;;1.33;;
6787;SDS011;3431;47.966;10.268;2022-11-15T04:01:41;1.50;;;1.40;;
6787;SDS011;3431;47.966;10.268;2022-11-15T04:02:21;1.50;;;1.40;;
6787;SDS011;3431;47.966;10.268;2022-11-15T04:03:03;1.15;;;1.10;;
6787;SDS011;3431;47.966;10.268;2022-11-15T04:03:43;1.00;;;1.00;;
6787;SDS011;3431;47.966;10.268;2022-11-15T04:04:24;1.40;;;1.30;;
6787;SDS011;3431;47.966;10.268;2022-11-15T04:05:05;1.10;;;1.10;;
6787;SDS011;3431;47.966;10.268;2022-11-15T04:05:46;1.23;;;1.15;;
6787;SDS011;3431;47.966;10.268;2022-11-15T04:06:26;1.15;;;1.05;;
6787;SDS011;3431;47.966;10.268;2022-11-15T04:07:06;1.25;;;1.20;;
6787;SDS011;3431;47.966;10.268;2022-11-15T04:07:47;1.35;;;1.25;;
6787;SDS011;3431;47.966;10.268;2022-11-15T04:08:27;1.20;;;1.10;;
6787;SDS011;3431;47.966;10.268;2022-11-15T04:09:07;1.30;;;1.30;;
6787;SDS011;3431;47.966;10.268;2022-11-15T04:09:48;1.27;;;1.27;;
6787;SDS011;3431;47.966;10.268;2022-11-15T04:10:43;1.13;;;1.13;;
6787;SDS011;3431;47.966;10.268;2022-11-15T04:11:23;1.08;;;1.08;;
6787;SDS011;3431;47.966;10.268;2022-11-15T04:12:04;1.50;;;1.40;;
6787;SDS011;3431;47.966;10.268;2022-11-15T04:12:45;1.30;;;1.30;;
6787;SDS011;3431;47.966;10.268;2022-11-15T04:13:26;1.52;;;1.15;;
6787;SDS011;3431;47.966;10.268;2022-11-15T04:14:07;1.10;;;1.10;;
6787;SDS011;3431;47.966;10.268;2022-11-15T04:14:47;1.30;;;1.27;;
6787;SDS011;3431;47.966;10.268;2022-11-15T04:15:46;1.13;;;1.13;;
6787;SDS011;3431;47.966;10.268;2022-11-15T04:16:25;1.08;;;1.08;;
6787;SDS011;3431;47.966;10.268;2022-11-15T04:17:06;1.27;;;1.15;;
6787;SDS011;3431;47.966;10.268;2022-11-15T04:17:47;1.33;;;1.23;;
6787;SDS011;3431;47.966;10.268;2022-11-15T04:18:31;1.00;;;1.00;;
6787;SDS011;3431;47.966;10.268;2022-11-15T04:19:11;1.30;;;1.20;;
6787;SDS011;3431;47.966;10.268;2022-11-15T04:20:11;1.27;;;1.20;;
6787;SDS011;3431;47.966;10.268;2022-11-15T04:21:11;1.25;;;1.25;;
6787;SDS011;3431;47.966;10.268;2022-11-15T04:22:10;0.98;;;0.98;;
6787;SDS011;3431;47.966;10.268;2022-11-15T04:23:10;1.38;;;1.27;;
6787;SDS011;3431;47.966;10.268;2022-11-15T04:24:11;1.40;;;1.40;;
6787;SDS011;3431;47.966;10.268;2022-11-15T04:24:55;1.20;;;1.20;;
6787;SDS011;3431;47.966;10.268;2022-11-15T04:25:34;1.20;;;1.20;;
6787;SDS011;3431;47.966;10.268;2022-11-15T04:26:15;1.23;;;1.20;;
6787;SDS011;3431;47.966;10.268;2022-11-15T04:26:58;1.35;;;1.33;;
6787;SDS011;3431;47.966;10.268;2022-11-15T04:27:39;1.33;;;1.30;;
6787;SDS011;3431;47.966;10.268;2022-11-15T04:28:19;1.40;;;1.30;;
6787;SDS011;3431;47.966;10.268;2022-11-15T04:29:00;1.30;;;1.30;;
6787;SDS011;3431;47.966;10.268;2022-11-15T04:29:58;1.50;;;1.40;;
6787;SDS011;3431;47.966;10.268;2022-11-15T04:30:39;1.30;;;1.20;;
6787;SDS011;3431;47.966;10.268;2022-11-15T04:31:20;1.00;;;1.00;;